ETH640 HAAB-VABB
Flight info
| Callsign | ETH640 |
|---|---|
| Flight time | 4h 40m |
| Altitude | 37000 |
| Route | NIDEG1A NIDEG UB535 TORBA T701 ULALI P751 DAPAB/N0478F390 P751 BISET KETOR2A |
| Aircraft | B77W/H-SDE1E2E3FGHIJ2J3J4J5M1RWXY/LB1D1 |
Departure
| Time | 2026-05-05 18:53 |
|---|---|
| Airport | Addis Ababa Bole International Airport (HAAB) |
Arrival
| Time | 2026-05-05 23:33 |
|---|---|
| Airport | Chhatrapati Shivaji Maharaj International Airport (VABB) |
| Time | Latitude | Longitude | Altitude | Speed | Heading |
|---|---|---|---|---|---|
| 2026-05-05 18:26 | 8.98225 | 38.79675 | 7622 ft | 0 kts | 342° |
| 2026-05-05 18:42 | 8.98211 | 38.79680 | 7386 ft | 2 kts | 334° |
| 2026-05-05 18:42 | 8.98197 | 38.79688 | 7306 ft | 2 kts | 324° |
| 2026-05-05 18:42 | 8.98184 | 38.79699 | 7678 ft | 2 kts | 307° |
| 2026-05-05 18:42 | 8.98176 | 38.79713 | 7627 ft | 2 kts | 284° |
| 2026-05-05 18:43 | 8.98174 | 38.79730 | 7627 ft | 2 kts | 265° |
| 2026-05-05 18:43 | 8.98176 | 38.79745 | 7627 ft | 2 kts | 255° |
| 2026-05-05 18:43 | 8.98177 | 38.79750 | 7628 ft | 0 kts | 253° |
| 2026-05-05 18:45 | 8.98175 | 38.79741 | 7627 ft | 8 kts | 253° |
| 2026-05-05 18:45 | 8.98158 | 38.79687 | 7625 ft | 15 kts | 253° |
| 2026-05-05 18:46 | 8.98120 | 38.79558 | 7622 ft | 22 kts | 253° |
| 2026-05-05 18:46 | 8.98077 | 38.79417 | 7622 ft | 15 kts | 253° |
| 2026-05-05 18:46 | 8.98039 | 38.79288 | 7622 ft | 18 kts | 253° |
| 2026-05-05 18:46 | 8.98001 | 38.79161 | 7622 ft | 19 kts | 253° |
| 2026-05-05 18:47 | 8.97957 | 38.79018 | 7622 ft | 20 kts | 252° |
| 2026-05-05 18:47 | 8.97915 | 38.78874 | 7622 ft | 23 kts | 253° |
| 2026-05-05 18:47 | 8.97873 | 38.78757 | 7623 ft | 10 kts | 230° |
| 2026-05-05 18:47 | 8.97776 | 38.78758 | 7623 ft | 19 kts | 163° |
| 2026-05-05 18:48 | 8.97639 | 38.78802 | 7624 ft | 19 kts | 162° |
| 2026-05-05 18:48 | 8.97575 | 38.78800 | 7626 ft | 4 kts | 225° |
| 2026-05-05 18:48 | 8.97539 | 38.78744 | 7626 ft | 14 kts | 240° |
| 2026-05-05 18:48 | 8.97505 | 38.78620 | 7626 ft | 24 kts | 255° |
| 2026-05-05 18:49 | 8.97458 | 38.78450 | 7626 ft | 26 kts | 253° |
| 2026-05-05 18:49 | 8.97407 | 38.78307 | 7627 ft | 14 kts | 236° |
| 2026-05-05 18:49 | 8.97338 | 38.78298 | 7624 ft | 16 kts | 148° |
| 2026-05-05 18:49 | 8.97301 | 38.78327 | 7622 ft | 0 kts | 141° |
| 2026-05-05 18:51 | 8.97267 | 38.78355 | 7621 ft | 13 kts | 139° |
| 2026-05-05 18:52 | 8.97252 | 38.78420 | 7621 ft | 12 kts | 79° |
| 2026-05-05 18:52 | 8.97258 | 38.78444 | 7621 ft | 0 kts | 75° |
| 2026-05-05 18:52 | 8.97299 | 38.78591 | 7622 ft | 61 kts | 73° |
| 2026-05-05 18:52 | 8.97513 | 38.79307 | 7621 ft | 150 kts | 73° |
| 2026-05-05 18:53 | 8.97893 | 38.80537 | 7812 ft | 206 kts | 71° |
| 2026-05-05 18:53 | 8.98341 | 38.81981 | 8635 ft | 219 kts | 72° |
| 2026-05-05 18:53 | 8.98762 | 38.83454 | 9535 ft | 224 kts | 74° |
| 2026-05-05 18:53 | 8.99257 | 38.84970 | 10268 ft | 222 kts | 71° |
| 2026-05-05 18:54 | 8.99820 | 38.86369 | 11068 ft | 215 kts | 67° |
| 2026-05-05 18:54 | 9.00458 | 38.87751 | 11587 ft | 220 kts | 65° |
| 2026-05-05 18:54 | 9.01220 | 38.89138 | 11902 ft | 233 kts | 54° |
| 2026-05-05 18:54 | 9.02218 | 38.90451 | 12351 ft | 236 kts | 56° |
| 2026-05-05 18:55 | 9.03154 | 38.91818 | 13102 ft | 230 kts | 57° |
| 2026-05-05 18:55 | 9.04037 | 38.93144 | 13666 ft | 232 kts | 55° |
| 2026-05-05 18:55 | 9.05053 | 38.94516 | 13910 ft | 258 kts | 53° |
| 2026-05-05 18:55 | 9.06207 | 38.96049 | 14196 ft | 283 kts | 54° |
| 2026-05-05 18:56 | 9.07405 | 38.97720 | 14382 ft | 311 kts | 55° |
| 2026-05-05 18:56 | 9.08725 | 38.99592 | 14516 ft | 341 kts | 55° |
| 2026-05-05 18:56 | 9.10152 | 39.01614 | 14727 ft | 366 kts | 55° |
| 2026-05-05 18:56 | 9.11652 | 39.03729 | 15380 ft | 374 kts | 55° |
| 2026-05-05 18:57 | 9.13181 | 39.05879 | 16122 ft | 380 kts | 55° |
| 2026-05-05 18:57 | 9.14762 | 39.08099 | 16890 ft | 386 kts | 55° |
| 2026-05-05 18:57 | 9.16339 | 39.10311 | 17721 ft | 390 kts | 55° |
| 2026-05-05 18:57 | 9.17940 | 39.12556 | 18491 ft | 396 kts | 55° |
| 2026-05-05 18:58 | 9.19541 | 39.14803 | 19169 ft | 401 kts | 55° |
| 2026-05-05 18:58 | 9.21205 | 39.17137 | 19889 ft | 405 kts | 55° |
| 2026-05-05 18:58 | 9.22833 | 39.19421 | 20620 ft | 408 kts | 54° |
| 2026-05-05 18:58 | 9.24500 | 39.21769 | 21263 ft | 413 kts | 56° |
| 2026-05-05 18:59 | 9.26046 | 39.24234 | 22012 ft | 416 kts | 60° |
| 2026-05-05 18:59 | 9.27478 | 39.26804 | 22629 ft | 421 kts | 62° |
| 2026-05-05 18:59 | 9.28875 | 39.29422 | 23323 ft | 424 kts | 62° |
| 2026-05-05 18:59 | 9.30273 | 39.32061 | 24029 ft | 426 kts | 62° |
| 2026-05-05 19:00 | 9.31690 | 39.34712 | 24538 ft | 431 kts | 61° |
| 2026-05-05 19:00 | 9.33145 | 39.37404 | 24947 ft | 439 kts | 61° |
| 2026-05-05 19:00 | 9.34635 | 39.40134 | 25174 ft | 444 kts | 61° |
| 2026-05-05 19:00 | 9.36140 | 39.42874 | 25239 ft | 446 kts | 60° |
| 2026-05-05 19:01 | 9.37638 | 39.45592 | 25247 ft | 439 kts | 60° |
| 2026-05-05 19:01 | 9.39131 | 39.48296 | 25247 ft | 443 kts | 60° |
| 2026-05-05 19:01 | 9.40642 | 39.51033 | 25241 ft | 445 kts | 60° |
| 2026-05-05 19:01 | 9.42156 | 39.53777 | 25230 ft | 445 kts | 60° |
| 2026-05-05 19:02 | 9.43666 | 39.56514 | 25223 ft | 446 kts | 60° |
| 2026-05-05 19:02 | 9.45174 | 39.59249 | 25218 ft | 445 kts | 60° |
| 2026-05-05 19:02 | 9.46692 | 39.62004 | 25551 ft | 450 kts | 60° |
| 2026-05-05 19:02 | 9.48223 | 39.64783 | 26017 ft | 454 kts | 60° |
| 2026-05-05 19:03 | 9.49769 | 39.67590 | 26518 ft | 457 kts | 60° |
| 2026-05-05 19:03 | 9.51344 | 39.70450 | 27008 ft | 461 kts | 60° |
| 2026-05-05 19:03 | 9.52912 | 39.73299 | 27457 ft | 465 kts | 60° |
| 2026-05-05 19:03 | 9.54498 | 39.76180 | 27858 ft | 471 kts | 60° |
| 2026-05-05 19:04 | 9.55557 | 39.78106 | 28127 ft | 474 kts | 60° |
| 2026-05-05 19:04 | 9.57173 | 39.81043 | 28455 ft | 480 kts | 60° |
| 2026-05-05 19:04 | 9.59359 | 39.85019 | 28997 ft | 485 kts | 60° |
| 2026-05-05 19:04 | 9.61004 | 39.88012 | 29458 ft | 487 kts | 60° |
| 2026-05-05 19:05 | 9.62663 | 39.91030 | 29869 ft | 491 kts | 60° |
| 2026-05-05 19:05 | 9.63764 | 39.93034 | 30105 ft | 493 kts | 60° |
| 2026-05-05 19:05 | 9.65985 | 39.97076 | 30523 ft | 497 kts | 60° |
| 2026-05-05 19:05 | 9.67691 | 40.00183 | 30861 ft | 499 kts | 60° |
| 2026-05-05 19:06 | 9.69357 | 40.03216 | 31256 ft | 498 kts | 61° |
| 2026-05-05 19:06 | 9.70491 | 40.05282 | 31572 ft | 497 kts | 61° |
| 2026-05-05 19:06 | 9.72711 | 40.09329 | 32205 ft | 494 kts | 61° |
| 2026-05-05 19:06 | 9.74382 | 40.12374 | 32671 ft | 493 kts | 61° |
| 2026-05-05 19:07 | 9.75508 | 40.14426 | 32967 ft | 493 kts | 61° |
| 2026-05-05 19:07 | 9.77170 | 40.17458 | 33400 ft | 492 kts | 61° |
| 2026-05-05 19:07 | 9.79366 | 40.21465 | 33978 ft | 491 kts | 61° |
| 2026-05-05 19:07 | 9.81023 | 40.24489 | 34339 ft | 490 kts | 61° |
| 2026-05-05 19:08 | 9.82679 | 40.27510 | 34702 ft | 489 kts | 61° |
| 2026-05-05 19:08 | 9.83809 | 40.29540 | 34956 ft | 488 kts | 59° |
| 2026-05-05 19:08 | 9.85639 | 40.32432 | 35338 ft | 487 kts | 56° |
| 2026-05-05 19:08 | 9.87570 | 40.35190 | 35686 ft | 486 kts | 54° |
| 2026-05-05 19:09 | 9.90266 | 40.38887 | 36144 ft | 486 kts | 53° |
| 2026-05-05 19:09 | 9.92272 | 40.41634 | 36494 ft | 485 kts | 53° |
| 2026-05-05 19:09 | 9.93587 | 40.43454 | 36725 ft | 484 kts | 54° |
| 2026-05-05 19:09 | 9.95573 | 40.46233 | 36839 ft | 488 kts | 54° |
| 2026-05-05 19:10 | 9.99528 | 40.51854 | 36874 ft | 489 kts | 54° |
| 2026-05-05 19:10 | 10.03428 | 40.57443 | 36863 ft | 482 kts | 54° |
| 2026-05-05 19:11 | 10.07293 | 40.62985 | 36862 ft | 480 kts | 54° |
| 2026-05-05 19:11 | 10.11153 | 40.68515 | 36852 ft | 480 kts | 54° |
| 2026-05-05 19:12 | 10.15010 | 40.74042 | 36843 ft | 480 kts | 54° |
| 2026-05-05 19:12 | 10.18900 | 40.79617 | 36844 ft | 481 kts | 54° |
| 2026-05-05 19:13 | 10.22774 | 40.85172 | 36838 ft | 482 kts | 55° |
| 2026-05-05 19:13 | 10.26657 | 40.90742 | 36834 ft | 483 kts | 55° |
| 2026-05-05 19:14 | 10.28602 | 40.93535 | 38445 ft | 488 kts | 54° |
| 2026-05-05 19:14 | 10.30566 | 40.96354 | 38185 ft | 488 kts | 54° |
| 2026-05-05 19:14 | 10.32516 | 40.99154 | 37931 ft | 484 kts | 54° |
| 2026-05-05 19:14 | 10.34450 | 41.01932 | 37682 ft | 480 kts | 54° |
| 2026-05-05 19:15 | 10.36377 | 41.04700 | 37431 ft | 478 kts | 54° |
| 2026-05-05 19:15 | 10.38292 | 41.07453 | 37227 ft | 476 kts | 54° |
| 2026-05-05 19:15 | 10.42098 | 41.12925 | 37072 ft | 476 kts | 54° |
| 2026-05-05 19:16 | 10.45953 | 41.18470 | 37008 ft | 483 kts | 55° |
| 2026-05-05 19:16 | 10.49834 | 41.24056 | 37002 ft | 484 kts | 55° |
| 2026-05-05 19:17 | 10.53697 | 41.29617 | 37000 ft | 484 kts | 55° |
| 2026-05-05 19:17 | 10.57580 | 41.35212 | 37000 ft | 484 kts | 55° |
| 2026-05-05 19:18 | 10.61439 | 41.40809 | 37000 ft | 483 kts | 57° |
| 2026-05-05 19:18 | 10.64908 | 41.46701 | 37004 ft | 482 kts | 61° |
| 2026-05-05 19:19 | 10.68145 | 41.52619 | 36999 ft | 482 kts | 61° |
| 2026-05-05 19:19 | 10.71442 | 41.58553 | 37001 ft | 481 kts | 60° |
| 2026-05-05 19:20 | 10.74774 | 41.64446 | 37001 ft | 481 kts | 60° |
| 2026-05-05 19:20 | 10.78116 | 41.70331 | 37001 ft | 481 kts | 60° |
| 2026-05-05 19:21 | 10.81458 | 41.76222 | 37002 ft | 481 kts | 60° |
| 2026-05-05 19:21 | 10.84798 | 41.82120 | 37002 ft | 481 kts | 60° |
| 2026-05-05 19:22 | 10.88136 | 41.88019 | 37001 ft | 481 kts | 60° |
| 2026-05-05 19:22 | 10.91470 | 41.93913 | 37001 ft | 481 kts | 60° |
| 2026-05-05 19:23 | 10.94811 | 41.99823 | 37001 ft | 481 kts | 60° |
| 2026-05-05 19:23 | 10.98150 | 42.05733 | 37001 ft | 482 kts | 60° |
| 2026-05-05 19:24 | 11.01486 | 42.11643 | 37002 ft | 482 kts | 60° |
| 2026-05-05 19:24 | 11.04820 | 42.17559 | 37002 ft | 482 kts | 60° |
| 2026-05-05 19:25 | 11.08090 | 42.23508 | 37001 ft | 482 kts | 61° |
| 2026-05-05 19:25 | 11.11339 | 42.29474 | 37001 ft | 482 kts | 61° |
| 2026-05-05 19:26 | 11.14593 | 42.35437 | 37002 ft | 482 kts | 61° |
| 2026-05-05 19:26 | 11.17854 | 42.41403 | 37000 ft | 482 kts | 61° |
| 2026-05-05 19:27 | 11.21112 | 42.47363 | 37001 ft | 482 kts | 61° |
| 2026-05-05 19:27 | 11.24368 | 42.53323 | 37001 ft | 482 kts | 61° |
| 2026-05-05 19:28 | 11.27628 | 42.59294 | 37001 ft | 482 kts | 61° |
| 2026-05-05 19:28 | 11.30880 | 42.65255 | 37001 ft | 481 kts | 61° |
| 2026-05-05 19:29 | 11.34132 | 42.71219 | 37002 ft | 481 kts | 61° |
| 2026-05-05 19:29 | 11.37384 | 42.77187 | 37001 ft | 481 kts | 61° |
| 2026-05-05 19:30 | 11.40636 | 42.83159 | 37001 ft | 481 kts | 61° |
| 2026-05-05 19:30 | 11.43887 | 42.89133 | 37001 ft | 481 kts | 61° |
| 2026-05-05 19:31 | 11.47135 | 42.95104 | 37002 ft | 481 kts | 61° |
| 2026-05-05 19:31 | 11.50357 | 43.01033 | 37001 ft | 481 kts | 61° |
| 2026-05-05 19:32 | 11.53602 | 43.07006 | 37001 ft | 481 kts | 61° |
| 2026-05-05 19:32 | 11.57079 | 43.12832 | 37007 ft | 481 kts | 56° |
| 2026-05-05 19:33 | 11.60845 | 43.18473 | 37003 ft | 481 kts | 56° |
| 2026-05-05 19:33 | 11.64618 | 43.24116 | 37001 ft | 481 kts | 56° |
| 2026-05-05 19:34 | 11.68367 | 43.29780 | 37002 ft | 481 kts | 56° |
| 2026-05-05 19:35 | 11.73970 | 43.38284 | 37001 ft | 482 kts | 56° |
| 2026-05-05 19:35 | 11.77709 | 43.43959 | 37001 ft | 482 kts | 56° |
| 2026-05-05 19:36 | 11.81444 | 43.49632 | 37001 ft | 482 kts | 56° |
| 2026-05-05 19:36 | 11.85178 | 43.55308 | 37001 ft | 482 kts | 56° |
| 2026-05-05 19:37 | 11.88920 | 43.60985 | 37001 ft | 482 kts | 56° |
| 2026-05-05 19:37 | 11.92728 | 43.66612 | 37001 ft | 482 kts | 55° |
| 2026-05-05 19:38 | 11.96556 | 43.72229 | 37001 ft | 481 kts | 55° |
| 2026-05-05 19:38 | 12.00369 | 43.77849 | 37001 ft | 481 kts | 55° |
| 2026-05-05 19:39 | 12.04176 | 43.83478 | 37001 ft | 481 kts | 55° |
| 2026-05-05 19:39 | 12.07984 | 43.89112 | 37001 ft | 481 kts | 55° |
| 2026-05-05 19:40 | 12.11763 | 43.94706 | 37001 ft | 481 kts | 55° |
| 2026-05-05 19:40 | 12.15503 | 44.00377 | 36995 ft | 481 kts | 61° |
| 2026-05-05 19:41 | 12.17843 | 44.06758 | 37005 ft | 480 kts | 78° |
| 2026-05-05 19:41 | 12.18531 | 44.13535 | 37005 ft | 480 kts | 87° |
| 2026-05-05 19:42 | 12.18903 | 44.20351 | 37001 ft | 480 kts | 87° |
| 2026-05-05 19:42 | 12.19307 | 44.27162 | 37002 ft | 481 kts | 86° |
| 2026-05-05 19:43 | 12.19753 | 44.33987 | 37001 ft | 481 kts | 86° |
| 2026-05-05 19:43 | 12.20213 | 44.40813 | 37001 ft | 481 kts | 86° |
| 2026-05-05 19:44 | 12.20671 | 44.47642 | 37001 ft | 481 kts | 86° |
| 2026-05-05 19:44 | 12.21125 | 44.54465 | 37001 ft | 481 kts | 86° |
| 2026-05-05 19:45 | 12.21578 | 44.61301 | 37001 ft | 481 kts | 86° |
| 2026-05-05 19:45 | 12.21952 | 44.66980 | 37001 ft | 481 kts | 86° |
| 2026-05-05 19:46 | 12.22476 | 44.74952 | 37001 ft | 481 kts | 86° |
| 2026-05-05 19:46 | 12.22923 | 44.81778 | 37001 ft | 481 kts | 86° |
| 2026-05-05 19:47 | 12.23292 | 44.87448 | 37001 ft | 481 kts | 86° |
| 2026-05-05 19:47 | 12.23735 | 44.94263 | 37001 ft | 481 kts | 86° |
| 2026-05-05 19:48 | 12.24251 | 45.02240 | 37001 ft | 481 kts | 86° |
| 2026-05-05 19:48 | 12.24616 | 45.07898 | 37001 ft | 481 kts | 86° |
| 2026-05-05 19:49 | 12.25128 | 45.15867 | 37001 ft | 481 kts | 86° |
| 2026-05-05 19:49 | 12.25490 | 45.21535 | 37001 ft | 481 kts | 86° |
| 2026-05-05 19:50 | 12.25995 | 45.29462 | 37001 ft | 481 kts | 86° |
| 2026-05-05 19:50 | 12.26428 | 45.36283 | 37001 ft | 481 kts | 86° |
| 2026-05-05 19:51 | 12.26797 | 45.41997 | 37001 ft | 481 kts | 86° |
| 2026-05-05 19:51 | 12.27265 | 45.48769 | 37001 ft | 481 kts | 86° |
| 2026-05-05 19:52 | 12.27742 | 45.55584 | 37001 ft | 481 kts | 86° |
| 2026-05-05 19:52 | 12.28214 | 45.62405 | 37001 ft | 481 kts | 86° |
| 2026-05-05 19:53 | 12.28680 | 45.69226 | 37001 ft | 481 kts | 86° |
| 2026-05-05 19:53 | 12.29144 | 45.76043 | 37001 ft | 481 kts | 86° |
| 2026-05-05 19:54 | 12.29607 | 45.82862 | 37001 ft | 481 kts | 86° |
| 2026-05-05 19:54 | 12.30068 | 45.89681 | 37001 ft | 481 kts | 86° |
| 2026-05-05 19:55 | 12.30528 | 45.96507 | 37001 ft | 481 kts | 86° |
| 2026-05-05 19:55 | 12.30986 | 46.03327 | 37001 ft | 481 kts | 86° |
| 2026-05-05 19:56 | 12.31442 | 46.10151 | 37001 ft | 481 kts | 86° |
| 2026-05-05 19:56 | 12.31897 | 46.16980 | 37001 ft | 481 kts | 86° |
| 2026-05-05 19:57 | 12.32349 | 46.23791 | 37001 ft | 481 kts | 86° |
| 2026-05-05 19:57 | 12.32800 | 46.30614 | 37001 ft | 481 kts | 86° |
| 2026-05-05 19:58 | 12.33249 | 46.37442 | 37001 ft | 481 kts | 86° |
| 2026-05-05 19:58 | 12.33697 | 46.44261 | 37001 ft | 481 kts | 86° |
| 2026-05-05 19:59 | 12.34140 | 46.51036 | 37001 ft | 481 kts | 86° |
| 2026-05-05 19:59 | 12.34583 | 46.57850 | 37001 ft | 481 kts | 86° |
| 2026-05-05 20:00 | 12.35026 | 46.64671 | 37001 ft | 481 kts | 86° |
| 2026-05-05 20:00 | 12.35467 | 46.71497 | 37001 ft | 481 kts | 86° |
| 2026-05-05 20:01 | 12.35906 | 46.78318 | 37001 ft | 481 kts | 86° |
| 2026-05-05 20:01 | 12.36343 | 46.85139 | 37001 ft | 481 kts | 86° |
| 2026-05-05 20:02 | 12.36779 | 46.91961 | 37001 ft | 481 kts | 86° |
| 2026-05-05 20:02 | 12.37213 | 46.98792 | 37001 ft | 481 kts | 86° |
| 2026-05-05 20:03 | 12.37645 | 47.05607 | 37001 ft | 481 kts | 86° |
| 2026-05-05 20:03 | 12.38082 | 47.12427 | 37001 ft | 481 kts | 86° |
| 2026-05-05 20:04 | 12.38521 | 47.19254 | 37001 ft | 481 kts | 86° |
| 2026-05-05 20:04 | 12.38957 | 47.26079 | 37001 ft | 481 kts | 86° |
| 2026-05-05 20:05 | 12.39390 | 47.32899 | 37001 ft | 481 kts | 86° |
| 2026-05-05 20:05 | 12.39822 | 47.39719 | 37001 ft | 481 kts | 86° |
| 2026-05-05 20:06 | 12.40462 | 47.46523 | 36996 ft | 481 kts | 78° |
| 2026-05-05 20:06 | 12.42547 | 47.53002 | 37002 ft | 480 kts | 64° |
| 2026-05-05 20:07 | 12.45752 | 47.59001 | 37003 ft | 481 kts | 60° |
| 2026-05-05 20:07 | 12.49071 | 47.64945 | 37001 ft | 481 kts | 60° |
| 2026-05-05 20:08 | 12.52359 | 47.70912 | 37002 ft | 481 kts | 61° |
| 2026-05-05 20:08 | 12.55613 | 47.76892 | 37001 ft | 481 kts | 61° |
| 2026-05-05 20:09 | 12.58862 | 47.82891 | 37001 ft | 481 kts | 61° |
| 2026-05-05 20:09 | 12.62108 | 47.88888 | 37001 ft | 482 kts | 61° |
| 2026-05-05 20:10 | 12.65355 | 47.94886 | 37001 ft | 482 kts | 61° |
| 2026-05-05 20:10 | 12.68581 | 48.00849 | 37001 ft | 481 kts | 61° |
| 2026-05-05 20:11 | 12.71822 | 48.06844 | 37001 ft | 481 kts | 61° |
| 2026-05-05 20:11 | 12.75065 | 48.12845 | 37001 ft | 481 kts | 61° |
| 2026-05-05 20:12 | 12.78304 | 48.18844 | 37001 ft | 481 kts | 61° |
| 2026-05-05 20:12 | 12.81540 | 48.24840 | 37001 ft | 481 kts | 61° |
| 2026-05-05 20:13 | 12.84779 | 48.30847 | 37001 ft | 481 kts | 61° |
| 2026-05-05 20:13 | 12.88010 | 48.36845 | 37001 ft | 481 kts | 61° |
| 2026-05-05 20:14 | 12.91244 | 48.42849 | 37001 ft | 481 kts | 61° |
| 2026-05-05 20:14 | 12.94473 | 48.48850 | 37001 ft | 481 kts | 61° |
| 2026-05-05 20:15 | 12.97702 | 48.54855 | 37001 ft | 481 kts | 61° |
| 2026-05-05 20:15 | 13.00932 | 48.60864 | 37001 ft | 481 kts | 61° |
| 2026-05-05 20:16 | 13.04158 | 48.66873 | 37001 ft | 481 kts | 61° |
| 2026-05-05 20:16 | 13.07385 | 48.72886 | 37001 ft | 481 kts | 61° |
| 2026-05-05 20:17 | 13.10610 | 48.78899 | 37001 ft | 481 kts | 61° |
| 2026-05-05 20:17 | 13.13833 | 48.84914 | 37001 ft | 481 kts | 61° |
| 2026-05-05 20:18 | 13.17056 | 48.90933 | 37001 ft | 481 kts | 61° |
| 2026-05-05 20:18 | 13.20276 | 48.96950 | 37001 ft | 481 kts | 61° |
| 2026-05-05 20:19 | 13.23494 | 49.02967 | 37001 ft | 481 kts | 61° |
| 2026-05-05 20:19 | 13.26711 | 49.08989 | 37001 ft | 481 kts | 61° |
| 2026-05-05 20:20 | 13.29926 | 49.15010 | 37001 ft | 481 kts | 61° |
| 2026-05-05 20:20 | 13.33146 | 49.21035 | 37001 ft | 481 kts | 61° |
| 2026-05-05 20:21 | 13.36373 | 49.27000 | 37001 ft | 481 kts | 61° |
| 2026-05-05 20:21 | 13.39626 | 49.33002 | 37001 ft | 481 kts | 61° |
| 2026-05-05 20:22 | 13.42875 | 49.39010 | 37001 ft | 481 kts | 61° |
| 2026-05-05 20:22 | 13.46139 | 49.45057 | 37001 ft | 481 kts | 61° |
| 2026-05-05 20:23 | 13.49362 | 49.51035 | 37001 ft | 481 kts | 61° |
| 2026-05-05 20:23 | 13.52602 | 49.57047 | 37001 ft | 481 kts | 61° |
| 2026-05-05 20:24 | 13.55840 | 49.63061 | 37001 ft | 481 kts | 61° |
| 2026-05-05 20:24 | 13.59079 | 49.69079 | 37001 ft | 481 kts | 61° |
| 2026-05-05 20:25 | 13.62316 | 49.75098 | 37001 ft | 481 kts | 61° |
| 2026-05-05 20:25 | 13.65549 | 49.81114 | 37001 ft | 481 kts | 61° |
| 2026-05-05 20:26 | 13.68783 | 49.87139 | 37001 ft | 481 kts | 61° |
| 2026-05-05 20:26 | 13.72015 | 49.93162 | 37001 ft | 481 kts | 61° |
| 2026-05-05 20:27 | 13.75243 | 49.99184 | 37001 ft | 481 kts | 61° |
| 2026-05-05 20:27 | 13.78473 | 50.05212 | 37001 ft | 481 kts | 61° |
| 2026-05-05 20:28 | 13.81718 | 50.11237 | 37001 ft | 481 kts | 61° |
| 2026-05-05 20:28 | 13.84979 | 50.17251 | 37001 ft | 481 kts | 61° |
| 2026-05-05 20:29 | 13.88233 | 50.23263 | 37001 ft | 481 kts | 61° |
| 2026-05-05 20:29 | 13.91481 | 50.29275 | 37001 ft | 481 kts | 61° |
| 2026-05-05 20:30 | 13.94731 | 50.35297 | 37001 ft | 481 kts | 61° |
| 2026-05-05 20:30 | 13.97975 | 50.41312 | 37001 ft | 481 kts | 61° |
| 2026-05-05 20:31 | 14.01220 | 50.47335 | 37001 ft | 481 kts | 61° |
| 2026-05-05 20:31 | 14.04465 | 50.53361 | 37001 ft | 481 kts | 61° |
| 2026-05-05 20:32 | 14.07708 | 50.59388 | 37001 ft | 481 kts | 61° |
| 2026-05-05 20:32 | 14.10717 | 50.65481 | 37000 ft | 481 kts | 68° |
| 2026-05-05 20:33 | 14.12697 | 50.72092 | 37006 ft | 480 kts | 77° |
| 2026-05-05 20:33 | 14.13956 | 50.77667 | 37002 ft | 480 kts | 77° |
| 2026-05-05 20:34 | 14.15458 | 50.84376 | 37001 ft | 480 kts | 77° |
| 2026-05-05 20:34 | 14.16986 | 50.91072 | 37002 ft | 481 kts | 77° |
| 2026-05-05 20:35 | 14.18535 | 50.97779 | 37001 ft | 481 kts | 77° |
| 2026-05-05 20:35 | 14.20085 | 51.04480 | 37001 ft | 481 kts | 77° |
| 2026-05-05 20:36 | 14.21633 | 51.11181 | 37001 ft | 481 kts | 77° |
| 2026-05-05 20:36 | 14.23178 | 51.17887 | 37001 ft | 481 kts | 77° |
| 2026-05-05 20:37 | 14.24721 | 51.24597 | 37001 ft | 481 kts | 77° |
| 2026-05-05 20:37 | 14.26261 | 51.31299 | 37001 ft | 481 kts | 77° |
| 2026-05-05 20:38 | 14.27800 | 51.38005 | 37001 ft | 481 kts | 77° |
| 2026-05-05 20:38 | 14.29337 | 51.44714 | 37001 ft | 481 kts | 77° |
| 2026-05-05 20:39 | 14.30870 | 51.51414 | 37001 ft | 481 kts | 77° |
| 2026-05-05 20:39 | 14.32402 | 51.58121 | 37001 ft | 480 kts | 77° |
| 2026-05-05 20:40 | 14.33922 | 51.64783 | 37001 ft | 480 kts | 77° |
| 2026-05-05 20:40 | 14.35451 | 51.71491 | 37001 ft | 480 kts | 77° |
| 2026-05-05 20:41 | 14.36979 | 51.78206 | 37001 ft | 480 kts | 77° |
| 2026-05-05 20:41 | 14.38504 | 51.84915 | 37001 ft | 480 kts | 77° |
| 2026-05-05 20:42 | 14.40028 | 51.91633 | 37001 ft | 480 kts | 77° |
| 2026-05-05 20:42 | 14.41549 | 51.98341 | 37001 ft | 480 kts | 77° |
| 2026-05-05 20:43 | 14.43069 | 52.05059 | 37001 ft | 480 kts | 77° |
| 2026-05-05 20:43 | 14.44585 | 52.11767 | 37001 ft | 480 kts | 77° |
| 2026-05-05 20:44 | 14.46101 | 52.18485 | 37001 ft | 480 kts | 77° |
| 2026-05-05 20:44 | 14.47614 | 52.25197 | 37001 ft | 480 kts | 77° |
| 2026-05-05 20:45 | 14.49881 | 52.35276 | 37001 ft | 480 kts | 77° |
| 2026-05-05 20:45 | 14.51391 | 52.41997 | 37001 ft | 480 kts | 77° |
| 2026-05-05 20:46 | 14.52897 | 52.48713 | 37001 ft | 480 kts | 77° |
| 2026-05-05 20:46 | 14.54402 | 52.55435 | 37001 ft | 480 kts | 77° |
| 2026-05-05 20:47 | 14.55904 | 52.62152 | 37001 ft | 480 kts | 77° |
| 2026-05-05 20:47 | 14.57406 | 52.68878 | 37001 ft | 480 kts | 77° |
| 2026-05-05 20:48 | 14.58906 | 52.75602 | 37001 ft | 480 kts | 77° |
| 2026-05-05 20:48 | 14.60402 | 52.82322 | 37001 ft | 480 kts | 77° |
| 2026-05-05 20:49 | 14.61897 | 52.89047 | 37001 ft | 480 kts | 77° |
| 2026-05-05 20:49 | 14.63392 | 52.95778 | 37001 ft | 480 kts | 77° |
| 2026-05-05 20:50 | 14.64882 | 53.02499 | 37001 ft | 480 kts | 77° |
| 2026-05-05 20:50 | 14.66381 | 53.09235 | 37001 ft | 480 kts | 77° |
| 2026-05-05 20:51 | 14.67936 | 53.15941 | 37001 ft | 480 kts | 76° |
| 2026-05-05 20:51 | 14.69510 | 53.22648 | 37002 ft | 480 kts | 76° |
| 2026-05-05 20:52 | 14.71075 | 53.29361 | 37001 ft | 480 kts | 77° |
| 2026-05-05 20:52 | 14.72631 | 53.36070 | 37001 ft | 480 kts | 77° |
| 2026-05-05 20:53 | 14.74184 | 53.42786 | 37001 ft | 480 kts | 77° |
| 2026-05-05 20:53 | 14.75736 | 53.49501 | 37001 ft | 480 kts | 77° |
| 2026-05-05 20:54 | 14.77285 | 53.56216 | 37001 ft | 480 kts | 77° |
| 2026-05-05 20:54 | 14.78833 | 53.62933 | 37001 ft | 480 kts | 77° |
| 2026-05-05 20:55 | 14.80369 | 53.69610 | 37001 ft | 480 kts | 77° |
| 2026-05-05 20:55 | 14.81922 | 53.76368 | 37001 ft | 480 kts | 77° |
| 2026-05-05 20:56 | 14.83452 | 53.83040 | 37001 ft | 480 kts | 77° |
| 2026-05-05 20:56 | 14.84993 | 53.89764 | 37001 ft | 480 kts | 77° |
| 2026-05-05 20:57 | 14.86530 | 53.96479 | 37001 ft | 480 kts | 77° |
| 2026-05-05 20:57 | 14.88065 | 54.03200 | 37001 ft | 480 kts | 77° |
| 2026-05-05 20:58 | 14.89071 | 54.07609 | 37001 ft | 480 kts | 77° |
| 2026-05-05 20:58 | 14.90522 | 54.13974 | 37001 ft | 480 kts | 77° |
| 2026-05-05 20:59 | 14.92052 | 54.20693 | 37001 ft | 480 kts | 77° |
| 2026-05-05 20:59 | 14.93581 | 54.27423 | 37001 ft | 480 kts | 77° |
| 2026-05-05 21:00 | 14.95106 | 54.34141 | 37001 ft | 480 kts | 77° |
| 2026-05-05 21:00 | 14.96630 | 54.40865 | 37001 ft | 480 kts | 77° |
| 2026-05-05 21:01 | 14.98154 | 54.47596 | 37001 ft | 480 kts | 77° |
| 2026-05-05 21:01 | 14.99674 | 54.54321 | 37001 ft | 480 kts | 77° |
| 2026-05-05 21:02 | 15.01193 | 54.61054 | 37001 ft | 480 kts | 77° |
| 2026-05-05 21:02 | 15.02709 | 54.67779 | 37001 ft | 480 kts | 77° |
| 2026-05-05 21:03 | 15.04224 | 54.74510 | 37001 ft | 480 kts | 77° |
| 2026-05-05 21:03 | 15.05736 | 54.81240 | 37009 ft | 481 kts | 77° |
| 2026-05-05 21:04 | 15.07252 | 54.87996 | 37013 ft | 482 kts | 77° |
| 2026-05-05 21:04 | 15.08012 | 54.91388 | 37117 ft | 485 kts | 77° |
| 2026-05-05 21:04 | 15.08773 | 54.94788 | 37424 ft | 485 kts | 77° |
| 2026-05-05 21:05 | 15.09531 | 54.98175 | 37805 ft | 483 kts | 77° |
| 2026-05-05 21:05 | 15.10289 | 55.01564 | 38182 ft | 482 kts | 77° |
| 2026-05-05 21:05 | 15.11043 | 55.04936 | 38517 ft | 481 kts | 77° |
| 2026-05-05 21:05 | 15.11795 | 55.08304 | 38800 ft | 481 kts | 77° |
| 2026-05-05 21:06 | 15.12548 | 55.11681 | 38933 ft | 483 kts | 77° |
| 2026-05-05 21:06 | 15.13306 | 55.15077 | 38968 ft | 485 kts | 77° |
| 2026-05-05 21:06 | 15.14818 | 55.21866 | 38991 ft | 482 kts | 77° |
| 2026-05-05 21:07 | 15.16317 | 55.28608 | 38998 ft | 479 kts | 77° |
| 2026-05-05 21:07 | 15.17742 | 55.35025 | 39005 ft | 477 kts | 77° |
| 2026-05-05 21:08 | 15.19233 | 55.41711 | 38999 ft | 477 kts | 77° |
| 2026-05-05 21:08 | 15.20815 | 55.48379 | 39000 ft | 477 kts | 76° |
| 2026-05-05 21:09 | 15.22430 | 55.55060 | 39000 ft | 479 kts | 76° |
| 2026-05-05 21:09 | 15.24036 | 55.61755 | 39001 ft | 480 kts | 76° |
| 2026-05-05 21:10 | 15.25638 | 55.68481 | 38998 ft | 481 kts | 76° |
| 2026-05-05 21:10 | 15.27236 | 55.75218 | 38999 ft | 482 kts | 76° |
| 2026-05-05 21:11 | 15.28837 | 55.81973 | 39000 ft | 483 kts | 76° |
| 2026-05-05 21:11 | 15.30438 | 55.88736 | 39007 ft | 483 kts | 76° |
| 2026-05-05 21:12 | 15.32034 | 55.95489 | 39004 ft | 483 kts | 76° |
| 2026-05-05 21:12 | 15.33619 | 56.02206 | 39005 ft | 483 kts | 76° |
| 2026-05-05 21:13 | 15.35211 | 56.08956 | 38996 ft | 482 kts | 76° |
| 2026-05-05 21:13 | 15.36800 | 56.15707 | 39005 ft | 482 kts | 76° |
| 2026-05-05 21:14 | 15.38126 | 56.21351 | 39001 ft | 481 kts | 76° |
| 2026-05-05 21:14 | 15.39964 | 56.29181 | 38997 ft | 481 kts | 76° |
| 2026-05-05 21:15 | 15.41277 | 56.34783 | 39001 ft | 481 kts | 76° |
| 2026-05-05 21:15 | 15.42852 | 56.41509 | 38998 ft | 481 kts | 76° |
| 2026-05-05 21:16 | 15.44427 | 56.48249 | 38998 ft | 481 kts | 76° |
| 2026-05-05 21:16 | 15.45999 | 56.54985 | 39004 ft | 481 kts | 76° |
| 2026-05-05 21:17 | 15.47570 | 56.61725 | 39002 ft | 481 kts | 76° |
| 2026-05-05 21:17 | 15.49138 | 56.68461 | 38998 ft | 481 kts | 76° |
| 2026-05-05 21:18 | 15.50704 | 56.75202 | 39000 ft | 481 kts | 77° |
| 2026-05-05 21:18 | 15.52269 | 56.81943 | 39003 ft | 481 kts | 77° |
| 2026-05-05 21:19 | 15.53833 | 56.88692 | 38999 ft | 481 kts | 77° |
| 2026-05-05 21:19 | 15.55394 | 56.95439 | 38999 ft | 481 kts | 77° |
| 2026-05-05 21:20 | 15.56955 | 57.02197 | 38999 ft | 481 kts | 77° |
| 2026-05-05 21:20 | 15.58513 | 57.08951 | 38999 ft | 481 kts | 77° |
| 2026-05-05 21:21 | 15.60069 | 57.15704 | 39002 ft | 481 kts | 77° |
| 2026-05-05 21:21 | 15.61623 | 57.22458 | 39002 ft | 481 kts | 77° |
| 2026-05-05 21:22 | 15.63174 | 57.29212 | 38999 ft | 481 kts | 77° |
| 2026-05-05 21:22 | 15.64723 | 57.35967 | 39003 ft | 481 kts | 77° |
| 2026-05-05 21:23 | 15.66261 | 57.42681 | 39002 ft | 481 kts | 77° |
| 2026-05-05 21:23 | 15.67807 | 57.49446 | 38997 ft | 481 kts | 77° |
| 2026-05-05 21:24 | 15.69349 | 57.56197 | 38998 ft | 481 kts | 77° |
| 2026-05-05 21:24 | 15.70891 | 57.62960 | 39003 ft | 481 kts | 77° |
| 2026-05-05 21:25 | 15.72429 | 57.69717 | 38998 ft | 481 kts | 77° |
| 2026-05-05 21:25 | 15.73965 | 57.76477 | 39009 ft | 481 kts | 77° |
| 2026-05-05 21:26 | 15.75500 | 57.83239 | 39003 ft | 481 kts | 77° |
| 2026-05-05 21:26 | 15.77033 | 57.90003 | 39004 ft | 481 kts | 77° |
| 2026-05-05 21:27 | 15.78564 | 57.96770 | 38997 ft | 481 kts | 77° |
| 2026-05-05 21:27 | 15.80092 | 58.03533 | 38995 ft | 481 kts | 77° |
| 2026-05-05 21:28 | 15.81617 | 58.10297 | 39002 ft | 481 kts | 77° |
| 2026-05-05 21:28 | 15.83143 | 58.17070 | 39002 ft | 481 kts | 77° |
| 2026-05-05 21:29 | 15.84665 | 58.23836 | 39010 ft | 481 kts | 77° |
| 2026-05-05 21:29 | 15.86183 | 58.30598 | 39004 ft | 481 kts | 77° |
| 2026-05-05 21:30 | 15.87702 | 58.37375 | 38999 ft | 481 kts | 77° |
| 2026-05-05 21:30 | 15.89217 | 58.44140 | 38997 ft | 481 kts | 77° |
| 2026-05-05 21:31 | 15.90732 | 58.50918 | 38998 ft | 481 kts | 77° |
| 2026-05-05 21:31 | 15.92242 | 58.57687 | 38996 ft | 481 kts | 77° |
| 2026-05-05 21:32 | 15.93753 | 58.64468 | 38997 ft | 481 kts | 77° |
| 2026-05-05 21:32 | 15.95262 | 58.71249 | 38999 ft | 481 kts | 77° |
| 2026-05-05 21:33 | 15.96767 | 58.78027 | 38999 ft | 481 kts | 77° |
| 2026-05-05 21:33 | 15.98269 | 58.84798 | 39004 ft | 481 kts | 77° |
| 2026-05-05 21:34 | 15.99762 | 58.91540 | 39000 ft | 481 kts | 77° |
| 2026-05-05 21:34 | 16.01260 | 58.98315 | 38999 ft | 481 kts | 77° |
| 2026-05-05 21:35 | 16.02757 | 59.05098 | 39006 ft | 481 kts | 77° |
| 2026-05-05 21:35 | 16.04252 | 59.11880 | 39002 ft | 481 kts | 77° |
| 2026-05-05 21:36 | 16.05744 | 59.18659 | 38996 ft | 481 kts | 77° |
| 2026-05-05 21:36 | 16.07234 | 59.25442 | 39007 ft | 481 kts | 77° |
| 2026-05-05 21:37 | 16.08721 | 59.32221 | 39002 ft | 481 kts | 77° |
| 2026-05-05 21:37 | 16.10208 | 59.39013 | 38998 ft | 481 kts | 77° |
| 2026-05-05 21:38 | 16.11693 | 59.45803 | 38998 ft | 481 kts | 77° |
| 2026-05-05 21:38 | 16.13174 | 59.52588 | 38995 ft | 481 kts | 77° |
| 2026-05-05 21:39 | 16.14653 | 59.59375 | 39002 ft | 481 kts | 77° |
| 2026-05-05 21:39 | 16.16132 | 59.66168 | 39000 ft | 481 kts | 77° |
| 2026-05-05 21:40 | 16.17607 | 59.72959 | 38999 ft | 481 kts | 77° |
| 2026-05-05 21:40 | 16.19080 | 59.79751 | 38999 ft | 481 kts | 77° |
| 2026-05-05 21:41 | 16.20550 | 59.86539 | 38999 ft | 481 kts | 77° |
| 2026-05-05 21:41 | 16.22017 | 59.93326 | 39000 ft | 481 kts | 77° |
| 2026-05-05 21:42 | 16.23485 | 60.00125 | 38998 ft | 481 kts | 77° |
| 2026-05-05 21:42 | 16.25116 | 60.06876 | 39010 ft | 481 kts | 75° |
| 2026-05-05 21:43 | 16.26891 | 60.13590 | 38998 ft | 481 kts | 75° |
| 2026-05-05 21:43 | 16.28653 | 60.20309 | 38998 ft | 481 kts | 75° |
| 2026-05-05 21:44 | 16.30387 | 60.27043 | 39002 ft | 481 kts | 75° |
| 2026-05-05 21:44 | 16.32105 | 60.33773 | 39006 ft | 481 kts | 75° |
| 2026-05-05 21:45 | 16.33821 | 60.40511 | 39004 ft | 481 kts | 75° |
| 2026-05-05 21:45 | 16.35536 | 60.47248 | 38999 ft | 481 kts | 75° |
| 2026-05-05 21:46 | 16.37250 | 60.53988 | 39000 ft | 481 kts | 75° |
| 2026-05-05 21:46 | 16.38960 | 60.60722 | 38997 ft | 481 kts | 75° |
| 2026-05-05 21:47 | 16.40671 | 60.67466 | 39006 ft | 481 kts | 75° |
| 2026-05-05 21:47 | 16.42378 | 60.74207 | 38999 ft | 481 kts | 75° |
| 2026-05-05 21:48 | 16.44081 | 60.80944 | 39003 ft | 481 kts | 75° |
| 2026-05-05 21:48 | 16.45784 | 60.87686 | 38998 ft | 481 kts | 75° |
| 2026-05-05 21:49 | 16.47485 | 60.94435 | 38999 ft | 481 kts | 75° |
| 2026-05-05 21:49 | 16.49185 | 61.01184 | 38999 ft | 481 kts | 75° |
| 2026-05-05 21:50 | 16.50880 | 61.07926 | 39002 ft | 481 kts | 75° |
| 2026-05-05 21:50 | 16.52575 | 61.14678 | 38999 ft | 481 kts | 75° |
| 2026-05-05 21:51 | 16.54267 | 61.21429 | 38999 ft | 481 kts | 75° |
| 2026-05-05 21:51 | 16.55955 | 61.28173 | 39004 ft | 481 kts | 75° |
| 2026-05-05 21:52 | 16.58477 | 61.38266 | 39004 ft | 481 kts | 76° |
| 2026-05-05 21:53 | 16.60161 | 61.45019 | 39002 ft | 481 kts | 76° |
| 2026-05-05 21:53 | 16.61843 | 61.51774 | 38999 ft | 481 kts | 76° |
| 2026-05-05 21:54 | 16.63523 | 61.58529 | 39005 ft | 481 kts | 76° |
| 2026-05-05 21:54 | 16.65200 | 61.65284 | 39007 ft | 481 kts | 76° |
| 2026-05-05 21:55 | 16.66876 | 61.72046 | 38995 ft | 481 kts | 76° |
| 2026-05-05 21:55 | 16.68550 | 61.78805 | 39001 ft | 481 kts | 76° |
| 2026-05-05 21:56 | 16.70222 | 61.85565 | 39000 ft | 481 kts | 76° |
| 2026-05-05 21:56 | 16.71611 | 61.91187 | 38999 ft | 481 kts | 76° |
| 2026-05-05 21:57 | 16.73560 | 61.99092 | 39006 ft | 481 kts | 76° |
| 2026-05-05 21:57 | 16.75226 | 62.05855 | 39005 ft | 481 kts | 76° |
| 2026-05-05 21:58 | 16.76609 | 62.11481 | 38996 ft | 481 kts | 76° |
| 2026-05-05 21:58 | 16.78549 | 62.19382 | 38997 ft | 481 kts | 76° |
| 2026-05-05 21:59 | 16.79927 | 62.25004 | 39003 ft | 481 kts | 76° |
| 2026-05-05 21:59 | 16.81585 | 62.31780 | 39003 ft | 481 kts | 76° |
| 2026-05-05 22:00 | 16.83240 | 62.38548 | 39003 ft | 481 kts | 76° |
| 2026-05-05 22:00 | 16.84893 | 62.45324 | 39004 ft | 481 kts | 76° |
| 2026-05-05 22:01 | 16.86545 | 62.52102 | 38998 ft | 481 kts | 76° |
| 2026-05-05 22:01 | 16.88182 | 62.58832 | 39009 ft | 481 kts | 76° |
| 2026-05-05 22:02 | 16.89827 | 62.65605 | 39002 ft | 481 kts | 76° |
| 2026-05-05 22:02 | 16.91469 | 62.72374 | 38998 ft | 481 kts | 76° |
| 2026-05-05 22:03 | 16.93110 | 62.79150 | 38997 ft | 481 kts | 76° |
| 2026-05-05 22:03 | 16.94750 | 62.85933 | 38997 ft | 481 kts | 76° |
| 2026-05-05 22:04 | 16.96386 | 62.92712 | 39007 ft | 481 kts | 76° |
| 2026-05-05 22:04 | 16.98020 | 62.99491 | 38998 ft | 481 kts | 76° |
| 2026-05-05 22:05 | 16.99651 | 63.06268 | 39002 ft | 481 kts | 76° |
| 2026-05-05 22:05 | 17.01280 | 63.13051 | 39006 ft | 481 kts | 76° |
| 2026-05-05 22:06 | 17.02821 | 63.19858 | 39002 ft | 481 kts | 77° |
| 2026-05-05 22:06 | 17.04314 | 63.26675 | 39009 ft | 481 kts | 77° |
| 2026-05-05 22:07 | 17.05814 | 63.33496 | 39009 ft | 481 kts | 77° |
| 2026-05-05 22:07 | 17.07320 | 63.40307 | 38999 ft | 481 kts | 77° |
| 2026-05-05 22:08 | 17.08826 | 63.47117 | 38998 ft | 481 kts | 77° |
| 2026-05-05 22:08 | 17.10332 | 63.53932 | 38999 ft | 481 kts | 77° |
| 2026-05-05 22:09 | 17.11835 | 63.60754 | 39006 ft | 481 kts | 77° |
| 2026-05-05 22:09 | 17.13335 | 63.67571 | 38999 ft | 481 kts | 77° |
| 2026-05-05 22:10 | 17.14835 | 63.74401 | 38997 ft | 481 kts | 77° |
| 2026-05-05 22:10 | 17.16331 | 63.81221 | 39009 ft | 481 kts | 77° |
| 2026-05-05 22:11 | 17.17823 | 63.88040 | 39002 ft | 481 kts | 77° |
| 2026-05-05 22:11 | 17.19315 | 63.94864 | 38999 ft | 481 kts | 77° |
| 2026-05-05 22:12 | 17.20803 | 64.01686 | 38999 ft | 481 kts | 77° |
| 2026-05-05 22:12 | 17.22291 | 64.08519 | 39006 ft | 481 kts | 77° |
| 2026-05-05 22:13 | 17.23775 | 64.15345 | 38997 ft | 481 kts | 77° |
| 2026-05-05 22:13 | 17.25257 | 64.22174 | 38999 ft | 481 kts | 77° |
| 2026-05-05 22:14 | 17.26735 | 64.28999 | 39002 ft | 481 kts | 77° |
| 2026-05-05 22:14 | 17.28213 | 64.35829 | 39001 ft | 481 kts | 77° |
| 2026-05-05 22:15 | 17.29770 | 64.42638 | 39001 ft | 481 kts | 76° |
| 2026-05-05 22:15 | 17.31408 | 64.49381 | 38995 ft | 481 kts | 76° |
| 2026-05-05 22:16 | 17.33063 | 64.56212 | 39005 ft | 481 kts | 76° |
| 2026-05-05 22:16 | 17.34690 | 64.63007 | 38999 ft | 481 kts | 76° |
| 2026-05-05 22:17 | 17.36307 | 64.69802 | 38998 ft | 481 kts | 76° |
| 2026-05-05 22:17 | 17.37922 | 64.76603 | 39007 ft | 481 kts | 76° |
| 2026-05-05 22:18 | 17.39525 | 64.83362 | 38996 ft | 481 kts | 76° |
| 2026-05-05 22:18 | 17.41136 | 64.90165 | 39003 ft | 481 kts | 76° |
| 2026-05-05 22:19 | 17.42744 | 64.96963 | 39003 ft | 481 kts | 76° |
| 2026-05-05 22:19 | 17.44352 | 65.03773 | 38997 ft | 481 kts | 76° |
| 2026-05-05 22:20 | 17.45955 | 65.10575 | 39002 ft | 481 kts | 76° |
| 2026-05-05 22:20 | 17.47557 | 65.17379 | 39000 ft | 481 kts | 76° |
| 2026-05-05 22:21 | 17.49156 | 65.24188 | 39002 ft | 481 kts | 76° |
| 2026-05-05 22:21 | 17.50755 | 65.31002 | 38999 ft | 481 kts | 76° |
| 2026-05-05 22:22 | 17.52349 | 65.37810 | 39002 ft | 481 kts | 76° |
| 2026-05-05 22:22 | 17.53942 | 65.44620 | 38995 ft | 481 kts | 76° |
| 2026-05-05 22:23 | 17.55532 | 65.51432 | 39000 ft | 481 kts | 76° |
| 2026-05-05 22:23 | 17.57120 | 65.58248 | 38996 ft | 481 kts | 76° |
| 2026-05-05 22:24 | 17.58706 | 65.65063 | 38999 ft | 481 kts | 76° |
| 2026-05-05 22:24 | 17.60288 | 65.71876 | 38998 ft | 481 kts | 76° |
| 2026-05-05 22:25 | 17.61869 | 65.78693 | 38999 ft | 481 kts | 76° |
| 2026-05-05 22:25 | 17.63442 | 65.85517 | 38999 ft | 481 kts | 77° |
| 2026-05-05 22:26 | 17.65005 | 65.92335 | 39007 ft | 481 kts | 77° |
| 2026-05-05 22:26 | 17.66568 | 65.99158 | 39002 ft | 481 kts | 77° |
| 2026-05-05 22:27 | 17.68129 | 66.05982 | 39001 ft | 481 kts | 77° |
| 2026-05-05 22:27 | 17.69687 | 66.12805 | 39006 ft | 481 kts | 77° |
| 2026-05-05 22:28 | 17.71245 | 66.19634 | 38998 ft | 481 kts | 77° |
| 2026-05-05 22:28 | 17.72800 | 66.26467 | 38995 ft | 481 kts | 77° |
| 2026-05-05 22:29 | 17.74352 | 66.33293 | 39003 ft | 481 kts | 77° |
| 2026-05-05 22:29 | 17.75897 | 66.40105 | 38998 ft | 481 kts | 77° |
| 2026-05-05 22:30 | 17.77443 | 66.46931 | 39007 ft | 481 kts | 77° |
| 2026-05-05 22:30 | 17.78987 | 66.53761 | 39003 ft | 481 kts | 77° |
| 2026-05-05 22:31 | 17.80529 | 66.60593 | 39003 ft | 481 kts | 77° |
| 2026-05-05 22:31 | 17.82066 | 66.67414 | 38999 ft | 481 kts | 77° |
| 2026-05-05 22:32 | 17.83594 | 66.74205 | 39002 ft | 481 kts | 77° |
| 2026-05-05 22:32 | 17.85129 | 66.81039 | 39002 ft | 481 kts | 77° |
| 2026-05-05 22:33 | 17.86661 | 66.87874 | 39003 ft | 481 kts | 77° |
| 2026-05-05 22:33 | 17.88190 | 66.94707 | 38996 ft | 481 kts | 77° |
| 2026-05-05 22:34 | 17.89717 | 67.01543 | 39003 ft | 481 kts | 77° |
| 2026-05-05 22:34 | 17.91243 | 67.08385 | 38997 ft | 481 kts | 77° |
| 2026-05-05 22:35 | 17.92767 | 67.15232 | 37387 ft | 480 kts | 76° |
| 2026-05-05 22:35 | 17.93524 | 67.18637 | 37664 ft | 479 kts | 76° |
| 2026-05-05 22:35 | 17.94281 | 67.22047 | 37925 ft | 481 kts | 76° |
| 2026-05-05 22:35 | 17.95042 | 67.25472 | 38198 ft | 483 kts | 76° |
| 2026-05-05 22:36 | 17.95806 | 67.28914 | 38439 ft | 484 kts | 76° |
| 2026-05-05 22:36 | 17.96572 | 67.32371 | 38638 ft | 487 kts | 76° |
| 2026-05-05 22:36 | 17.97341 | 67.35844 | 38728 ft | 491 kts | 76° |
| 2026-05-05 22:37 | 17.98888 | 67.42844 | 38827 ft | 489 kts | 76° |
| 2026-05-05 22:37 | 18.00414 | 67.49764 | 38844 ft | 483 kts | 76° |
| 2026-05-05 22:38 | 18.01923 | 67.56616 | 38851 ft | 480 kts | 76° |
| 2026-05-05 22:38 | 18.03426 | 67.63447 | 38851 ft | 479 kts | 76° |
| 2026-05-05 22:39 | 18.04924 | 67.70274 | 38850 ft | 480 kts | 76° |
| 2026-05-05 22:39 | 18.06421 | 67.77108 | 38867 ft | 481 kts | 76° |
| 2026-05-05 22:40 | 18.07920 | 67.83962 | 38859 ft | 482 kts | 76° |
| 2026-05-05 22:40 | 18.09409 | 67.90847 | 38859 ft | 484 kts | 76° |
| 2026-05-05 22:41 | 18.10642 | 67.96580 | 38852 ft | 485 kts | 76° |
| 2026-05-05 22:41 | 18.12128 | 68.03498 | 38855 ft | 486 kts | 76° |
| 2026-05-05 22:42 | 18.13615 | 68.10424 | 38858 ft | 486 kts | 76° |
| 2026-05-05 22:42 | 18.15102 | 68.17366 | 38858 ft | 486 kts | 76° |
| 2026-05-05 22:43 | 18.16586 | 68.24301 | 38852 ft | 486 kts | 76° |
| 2026-05-05 22:43 | 18.18068 | 68.31239 | 38853 ft | 486 kts | 76° |
| 2026-05-05 22:44 | 18.19547 | 68.38180 | 38855 ft | 486 kts | 76° |
| 2026-05-05 22:44 | 18.21022 | 68.45114 | 38854 ft | 486 kts | 77° |
| 2026-05-05 22:45 | 18.22496 | 68.52051 | 38857 ft | 486 kts | 77° |
| 2026-05-05 22:45 | 18.23965 | 68.58985 | 38851 ft | 486 kts | 77° |
| 2026-05-05 22:46 | 18.25431 | 68.65913 | 38848 ft | 485 kts | 77° |
| 2026-05-05 22:46 | 18.26887 | 68.72805 | 38850 ft | 486 kts | 77° |
| 2026-05-05 22:47 | 18.28349 | 68.79742 | 38851 ft | 486 kts | 77° |
| 2026-05-05 22:47 | 18.29818 | 68.86728 | 38849 ft | 486 kts | 77° |
| 2026-05-05 22:48 | 18.31275 | 68.93665 | 38847 ft | 486 kts | 77° |
| 2026-05-05 22:48 | 18.32723 | 69.00572 | 38850 ft | 486 kts | 77° |
| 2026-05-05 22:49 | 18.34176 | 69.07523 | 38846 ft | 487 kts | 77° |
| 2026-05-05 22:49 | 18.35638 | 69.14525 | 38846 ft | 487 kts | 77° |
| 2026-05-05 22:50 | 18.37079 | 69.21441 | 38846 ft | 487 kts | 77° |
| 2026-05-05 22:50 | 18.38514 | 69.28454 | 38846 ft | 487 kts | 79° |
| 2026-05-05 22:51 | 18.39125 | 69.35509 | 38849 ft | 488 kts | 88° |
| 2026-05-05 22:51 | 18.39229 | 69.42659 | 38847 ft | 488 kts | 89° |
| 2026-05-05 22:52 | 18.39320 | 69.49814 | 38851 ft | 489 kts | 88° |
| 2026-05-05 22:52 | 18.39444 | 69.56975 | 38849 ft | 489 kts | 88° |
| 2026-05-05 22:53 | 18.39584 | 69.64138 | 38850 ft | 489 kts | 88° |
| 2026-05-05 22:53 | 18.39724 | 69.71300 | 38850 ft | 489 kts | 88° |
| 2026-05-05 22:54 | 18.39861 | 69.78459 | 38848 ft | 490 kts | 88° |
| 2026-05-05 22:54 | 18.39994 | 69.85631 | 38846 ft | 490 kts | 88° |
| 2026-05-05 22:55 | 18.40124 | 69.92805 | 38842 ft | 490 kts | 88° |
| 2026-05-05 22:55 | 18.40251 | 69.99970 | 38846 ft | 490 kts | 88° |
| 2026-05-05 22:56 | 18.40375 | 70.07099 | 38847 ft | 490 kts | 88° |
| 2026-05-05 22:56 | 18.40498 | 70.14324 | 38844 ft | 490 kts | 88° |
| 2026-05-05 22:57 | 18.40616 | 70.21454 | 38843 ft | 490 kts | 89° |
| 2026-05-05 22:57 | 18.40733 | 70.28633 | 38843 ft | 490 kts | 89° |
| 2026-05-05 22:58 | 18.40848 | 70.35865 | 38843 ft | 491 kts | 89° |
| 2026-05-05 22:58 | 18.40959 | 70.43047 | 38845 ft | 491 kts | 89° |
| 2026-05-05 22:59 | 18.41068 | 70.50230 | 38842 ft | 491 kts | 89° |
| 2026-05-05 22:59 | 18.41174 | 70.57417 | 38843 ft | 491 kts | 89° |
| 2026-05-05 23:00 | 18.41327 | 70.68151 | 38843 ft | 491 kts | 89° |
| 2026-05-05 23:00 | 18.41426 | 70.75340 | 38843 ft | 491 kts | 89° |
| 2026-05-05 23:01 | 18.41523 | 70.82534 | 38842 ft | 491 kts | 89° |
| 2026-05-05 23:01 | 18.41617 | 70.89723 | 38845 ft | 491 kts | 89° |
| 2026-05-05 23:02 | 18.41708 | 70.96923 | 38846 ft | 491 kts | 89° |
| 2026-05-05 23:02 | 18.41796 | 71.04115 | 38842 ft | 492 kts | 89° |
| 2026-05-05 23:03 | 18.41882 | 71.11314 | 38845 ft | 492 kts | 89° |
| 2026-05-05 23:03 | 18.41965 | 71.18511 | 38850 ft | 491 kts | 89° |
| 2026-05-05 23:04 | 18.42046 | 71.25696 | 38760 ft | 489 kts | 89° |
| 2026-05-05 23:04 | 18.42085 | 71.29277 | 38312 ft | 490 kts | 89° |
| 2026-05-05 23:04 | 18.42123 | 71.32869 | 37644 ft | 491 kts | 89° |
| 2026-05-05 23:05 | 18.42161 | 71.36458 | 37018 ft | 489 kts | 89° |
| 2026-05-05 23:05 | 18.42197 | 71.40035 | 36411 ft | 488 kts | 89° |
| 2026-05-05 23:05 | 18.42233 | 71.43595 | 35820 ft | 486 kts | 89° |
| 2026-05-05 23:05 | 18.42269 | 71.47157 | 35243 ft | 485 kts | 89° |
| 2026-05-05 23:06 | 18.42303 | 71.50701 | 34671 ft | 484 kts | 89° |
| 2026-05-05 23:06 | 18.42337 | 71.54240 | 34115 ft | 482 kts | 89° |
| 2026-05-05 23:06 | 18.42370 | 71.57766 | 33525 ft | 481 kts | 89° |
| 2026-05-05 23:06 | 18.42403 | 71.61280 | 32902 ft | 479 kts | 88° |
| 2026-05-05 23:07 | 18.42434 | 71.64790 | 32287 ft | 478 kts | 88° |
| 2026-05-05 23:07 | 18.42465 | 71.68282 | 31699 ft | 476 kts | 88° |
| 2026-05-05 23:07 | 18.42495 | 71.71768 | 31117 ft | 475 kts | 88° |
| 2026-05-05 23:07 | 18.42525 | 71.75241 | 30552 ft | 474 kts | 88° |
| 2026-05-05 23:08 | 18.42553 | 71.78698 | 29990 ft | 472 kts | 88° |
| 2026-05-05 23:08 | 18.42581 | 71.82151 | 29349 ft | 470 kts | 88° |
| 2026-05-05 23:08 | 18.42609 | 71.85591 | 28717 ft | 468 kts | 88° |
| 2026-05-05 23:08 | 18.42635 | 71.89003 | 28088 ft | 466 kts | 88° |
| 2026-05-05 23:09 | 18.42661 | 71.92410 | 27466 ft | 463 kts | 88° |
| 2026-05-05 23:09 | 18.42686 | 71.95790 | 26877 ft | 461 kts | 87° |
| 2026-05-05 23:09 | 18.42711 | 71.99157 | 26286 ft | 459 kts | 87° |
| 2026-05-05 23:09 | 18.42735 | 72.02513 | 25707 ft | 456 kts | 87° |
| 2026-05-05 23:10 | 18.43035 | 72.05738 | 25113 ft | 445 kts | 72° |
| 2026-05-05 23:10 | 18.44171 | 72.08719 | 24582 ft | 436 kts | 56° |
| 2026-05-05 23:10 | 18.45965 | 72.11207 | 24418 ft | 417 kts | 44° |
| 2026-05-05 23:10 | 18.47911 | 72.13387 | 24270 ft | 397 kts | 43° |
| 2026-05-05 23:11 | 18.49766 | 72.15433 | 23962 ft | 377 kts | 43° |
| 2026-05-05 23:11 | 18.51553 | 72.17400 | 23529 ft | 366 kts | 43° |
| 2026-05-05 23:11 | 18.53289 | 72.19319 | 23012 ft | 359 kts | 43° |
| 2026-05-05 23:11 | 18.55002 | 72.21222 | 22529 ft | 360 kts | 43° |
| 2026-05-05 23:12 | 18.56745 | 72.23165 | 22049 ft | 368 kts | 43° |
| 2026-05-05 23:12 | 18.58500 | 72.25132 | 21570 ft | 370 kts | 44° |
| 2026-05-05 23:12 | 18.60261 | 72.27113 | 21086 ft | 370 kts | 44° |
| 2026-05-05 23:12 | 18.62017 | 72.29094 | 20614 ft | 369 kts | 44° |
| 2026-05-05 23:13 | 18.63766 | 72.31070 | 20152 ft | 369 kts | 44° |
| 2026-05-05 23:13 | 18.65517 | 72.33049 | 19687 ft | 369 kts | 44° |
| 2026-05-05 23:13 | 18.67266 | 72.35026 | 19242 ft | 368 kts | 45° |
| 2026-05-05 23:13 | 18.69010 | 72.36998 | 18795 ft | 368 kts | 45° |
| 2026-05-05 23:14 | 18.70751 | 72.38966 | 18348 ft | 367 kts | 45° |
| 2026-05-05 23:14 | 18.72491 | 72.40935 | 17863 ft | 366 kts | 45° |
| 2026-05-05 23:14 | 18.74225 | 72.42897 | 17410 ft | 365 kts | 45° |
| 2026-05-05 23:14 | 18.75944 | 72.44844 | 17007 ft | 361 kts | 46° |
| 2026-05-05 23:15 | 18.77631 | 72.46790 | 16591 ft | 356 kts | 50° |
| 2026-05-05 23:15 | 18.78942 | 72.48993 | 16213 ft | 354 kts | 65° |
| 2026-05-05 23:16 | 18.79611 | 72.50912 | 16033 ft | 348 kts | 73° |
| 2026-05-05 23:16 | 18.80121 | 72.53372 | 15807 ft | 341 kts | 79° |
| 2026-05-05 23:16 | 18.80517 | 72.55823 | 15578 ft | 334 kts | 80° |
| 2026-05-05 23:16 | 18.80894 | 72.58216 | 15358 ft | 328 kts | 80° |
| 2026-05-05 23:17 | 18.81264 | 72.60578 | 15137 ft | 325 kts | 80° |
| 2026-05-05 23:17 | 18.81637 | 72.62933 | 14924 ft | 325 kts | 80° |
| 2026-05-05 23:17 | 18.82013 | 72.65291 | 14734 ft | 326 kts | 80° |
| 2026-05-05 23:17 | 18.82391 | 72.67652 | 14523 ft | 327 kts | 80° |
| 2026-05-05 23:18 | 18.82773 | 72.70026 | 14319 ft | 328 kts | 81° |
| 2026-05-05 23:18 | 18.83156 | 72.72401 | 14120 ft | 327 kts | 81° |
| 2026-05-05 23:18 | 18.83538 | 72.74765 | 13907 ft | 327 kts | 81° |
| 2026-05-05 23:18 | 18.83921 | 72.77133 | 13635 ft | 328 kts | 81° |
| 2026-05-05 23:19 | 18.84303 | 72.79498 | 13332 ft | 325 kts | 81° |
| 2026-05-05 23:19 | 18.84680 | 72.81832 | 13031 ft | 321 kts | 81° |
| 2026-05-05 23:19 | 18.85054 | 72.84142 | 12719 ft | 317 kts | 81° |
| 2026-05-05 23:19 | 18.85421 | 72.86418 | 12415 ft | 313 kts | 81° |
| 2026-05-05 23:20 | 18.85785 | 72.88674 | 12119 ft | 310 kts | 81° |
| 2026-05-05 23:20 | 18.86143 | 72.90897 | 11708 ft | 311 kts | 82° |
| 2026-05-05 23:20 | 18.86503 | 72.93130 | 11237 ft | 314 kts | 82° |
| 2026-05-05 23:20 | 18.86870 | 72.95415 | 10777 ft | 316 kts | 82° |
| 2026-05-05 23:21 | 18.87237 | 72.97699 | 10322 ft | 318 kts | 82° |
| 2026-05-05 23:21 | 18.87607 | 73.00009 | 9863 ft | 320 kts | 82° |
| 2026-05-05 23:21 | 18.87977 | 73.02314 | 9361 ft | 313 kts | 82° |
| 2026-05-05 23:21 | 18.88334 | 73.04535 | 8844 ft | 301 kts | 82° |
| 2026-05-05 23:22 | 18.88673 | 73.06648 | 8353 ft | 291 kts | 82° |
| 2026-05-05 23:22 | 18.89006 | 73.08723 | 7851 ft | 283 kts | 81° |
| 2026-05-05 23:22 | 18.89329 | 73.10746 | 7371 ft | 276 kts | 81° |
| 2026-05-05 23:22 | 18.89645 | 73.12726 | 6900 ft | 271 kts | 81° |
| 2026-05-05 23:23 | 18.89955 | 73.14668 | 6427 ft | 266 kts | 80° |
| 2026-05-05 23:23 | 18.90275 | 73.16572 | 5945 ft | 261 kts | 75° |
| 2026-05-05 23:23 | 18.91058 | 73.18256 | 5458 ft | 253 kts | 52° |
| 2026-05-05 23:23 | 18.92194 | 73.19608 | 5058 ft | 242 kts | 34° |
| 2026-05-05 23:24 | 18.93737 | 73.20114 | 4539 ft | 231 kts | 354° |
| 2026-05-05 23:24 | 18.94740 | 73.19812 | 4221 ft | 225 kts | 329° |
| 2026-05-05 23:24 | 18.96389 | 73.18520 | 3622 ft | 219 kts | 320° |
| 2026-05-05 23:24 | 18.97548 | 73.17482 | 3186 ft | 216 kts | 319° |
| 2026-05-05 23:25 | 18.98644 | 73.16483 | 3075 ft | 204 kts | 319° |
| 2026-05-05 23:25 | 18.99721 | 73.15495 | 3053 ft | 203 kts | 319° |
| 2026-05-05 23:25 | 19.00428 | 73.14846 | 3046 ft | 195 kts | 319° |
| 2026-05-05 23:25 | 19.01431 | 73.13924 | 3002 ft | 188 kts | 319° |
| 2026-05-05 23:26 | 19.02399 | 73.13033 | 2974 ft | 180 kts | 319° |
| 2026-05-05 23:26 | 19.03328 | 73.12178 | 3003 ft | 175 kts | 319° |
| 2026-05-05 23:26 | 19.04236 | 73.11343 | 2997 ft | 175 kts | 319° |
| 2026-05-05 23:26 | 19.05172 | 73.10482 | 2994 ft | 179 kts | 319° |
| 2026-05-05 23:27 | 19.06118 | 73.09611 | 3010 ft | 180 kts | 319° |
| 2026-05-05 23:27 | 19.07052 | 73.08753 | 2980 ft | 176 kts | 319° |
| 2026-05-05 23:27 | 19.07970 | 73.07907 | 2999 ft | 175 kts | 319° |
| 2026-05-05 23:27 | 19.08735 | 73.06932 | 2976 ft | 173 kts | 290° |
| 2026-05-05 23:28 | 19.08896 | 73.05682 | 3006 ft | 173 kts | 275° |
| 2026-05-05 23:28 | 19.09025 | 73.04415 | 3017 ft | 174 kts | 276° |
| 2026-05-05 23:28 | 19.09092 | 73.03127 | 2774 ft | 172 kts | 271° |
| 2026-05-05 23:28 | 19.09093 | 73.01908 | 2565 ft | 160 kts | 270° |
| 2026-05-05 23:29 | 19.09080 | 73.00781 | 2368 ft | 149 kts | 269° |
| 2026-05-05 23:29 | 19.09065 | 72.99689 | 2195 ft | 148 kts | 269° |
| 2026-05-05 23:29 | 19.09049 | 72.98601 | 2011 ft | 148 kts | 270° |
| 2026-05-05 23:29 | 19.09033 | 72.97522 | 1816 ft | 145 kts | 269° |
| 2026-05-05 23:30 | 19.09017 | 72.96460 | 1636 ft | 144 kts | 269° |
| 2026-05-05 23:30 | 19.09001 | 72.95400 | 1446 ft | 144 kts | 269° |
| 2026-05-05 23:30 | 19.08986 | 72.94356 | 1257 ft | 141 kts | 269° |
| 2026-05-05 23:30 | 19.08971 | 72.93322 | 1080 ft | 141 kts | 269° |
| 2026-05-05 23:31 | 19.08955 | 72.92284 | 912 ft | 141 kts | 269° |
| 2026-05-05 23:31 | 19.08943 | 72.91434 | 762 ft | 141 kts | 269° |
| 2026-05-05 23:31 | 19.08938 | 72.91107 | 708 ft | 139 kts | 269° |
| 2026-05-05 23:31 | 19.08927 | 72.90404 | 570 ft | 138 kts | 269° |
| 2026-05-05 23:32 | 19.08912 | 72.89397 | 396 ft | 136 kts | 269° |
| 2026-05-05 23:32 | 19.08904 | 72.88397 | 217 ft | 135 kts | 268° |
| 2026-05-05 23:32 | 19.08880 | 72.87397 | 62 ft | 136 kts | 268° |
| 2026-05-05 23:32 | 19.08866 | 72.86473 | 35 ft | 104 kts | 269° |
| 2026-05-05 23:33 | 19.08857 | 72.85904 | 35 ft | 50 kts | 269° |
| 2026-05-05 23:33 | 19.08865 | 72.85696 | 35 ft | 23 kts | 284° |
| 2026-05-05 23:33 | 19.08923 | 72.85554 | 36 ft | 22 kts | 296° |
| 2026-05-05 23:33 | 19.08935 | 72.85527 | 37 ft | 0 kts | 297° |
| 2026-05-05 23:35 | 19.08936 | 72.85527 | 37 ft | 3 kts | 297° |
| 2026-05-05 23:35 | 19.08994 | 72.85485 | 38 ft | 13 kts | 360° |
| 2026-05-05 23:35 | 19.08999 | 72.85486 | 38 ft | 0 kts | 9° |
| 2026-05-05 23:35 | 19.09013 | 72.85497 | 38 ft | 11 kts | 43° |
| 2026-05-05 23:36 | 19.09028 | 72.85627 | 37 ft | 27 kts | 90° |
| 2026-05-05 23:36 | 19.09028 | 72.85775 | 37 ft | 18 kts | 90° |
| 2026-05-05 23:36 | 19.09028 | 72.85790 | 37 ft | 0 kts | 90° |
| 2026-05-05 23:37 | 19.09028 | 72.85848 | 37 ft | 17 kts | 90° |
| 2026-05-05 23:37 | 19.09030 | 72.86000 | 37 ft | 25 kts | 88° |
| 2026-05-05 23:38 | 19.09035 | 72.86191 | 37 ft | 24 kts | 89° |
| 2026-05-05 23:38 | 19.09036 | 72.86355 | 36 ft | 22 kts | 90° |
| 2026-05-05 23:38 | 19.09038 | 72.86503 | 35 ft | 22 kts | 88° |
| 2026-05-05 23:38 | 19.09042 | 72.86641 | 36 ft | 14 kts | 88° |
| 2026-05-05 23:39 | 19.09045 | 72.86783 | 38 ft | 24 kts | 90° |
| 2026-05-05 23:39 | 19.09045 | 72.86944 | 38 ft | 18 kts | 90° |
| 2026-05-05 23:39 | 19.09045 | 72.87055 | 38 ft | 12 kts | 90° |
| 2026-05-05 23:39 | 19.09046 | 72.87159 | 38 ft | 15 kts | 89° |
| 2026-05-05 23:40 | 19.09072 | 72.87251 | 38 ft | 5 kts | 32° |
| 2026-05-05 23:40 | 19.09146 | 72.87261 | 38 ft | 15 kts | 359° |
| 2026-05-05 23:40 | 19.09166 | 72.87260 | 38 ft | 0 kts | 359° |
| 2026-05-05 23:40 | 19.09169 | 72.87260 | 38 ft | 3 kts | 360° |
| 2026-05-05 23:41 | 19.09222 | 72.87292 | 38 ft | 15 kts | 54° |
| 2026-05-05 23:41 | 19.09250 | 72.87338 | 38 ft | 0 kts | 46° |
| 2026-05-05 23:41 | 19.09256 | 72.87344 | 38 ft | 5 kts | 45° |
| 2026-05-05 23:41 | 19.09324 | 72.87367 | 38 ft | 13 kts | 8° |
| 2026-05-05 23:42 | 19.09363 | 72.87366 | 38 ft | 5 kts | 341° |
| 2026-05-05 23:42 | 19.09400 | 72.87317 | 38 ft | 11 kts | 298° |
| 2026-05-05 23:42 | 19.09409 | 72.87301 | 38 ft | 4 kts | 299° |
| 2026-05-05 23:42 | 19.09421 | 72.87279 | 38 ft | 3 kts | 300° |
| 2026-05-05 23:43 | 19.09425 | 72.87271 | 38 ft | 0 kts | 300° |